sensor_id;sensor_type;location;lat;lon;timestamp;P1;durP1;ratioP1;P2;durP2;ratioP2
21326;SDS011;10822;51.532;6.770;2022-07-17T00:00:15;3.70;;;1.70;;
21326;SDS011;10822;51.532;6.770;2022-07-17T00:02:41;4.82;;;1.58;;
21326;SDS011;10822;51.532;6.770;2022-07-17T00:05:07;6.00;;;1.63;;
21326;SDS011;10822;51.532;6.770;2022-07-17T00:07:33;5.88;;;1.88;;
21326;SDS011;10822;51.532;6.770;2022-07-17T00:09:59;4.93;;;1.80;;
21326;SDS011;10822;51.532;6.770;2022-07-17T00:12:25;4.22;;;1.50;;
21326;SDS011;10822;51.532;6.770;2022-07-17T00:14:52;5.57;;;1.63;;
21326;SDS011;10822;51.532;6.770;2022-07-17T00:17:18;4.18;;;1.33;;
21326;SDS011;10822;51.532;6.770;2022-07-17T00:19:44;9.35;;;1.90;;
21326;SDS011;10822;51.532;6.770;2022-07-17T00:22:10;7.35;;;1.70;;
21326;SDS011;10822;51.532;6.770;2022-07-17T00:24:36;4.03;;;1.65;;
21326;SDS011;10822;51.532;6.770;2022-07-17T00:27:02;5.60;;;1.60;;
21326;SDS011;10822;51.532;6.770;2022-07-17T00:29:28;6.25;;;1.60;;
21326;SDS011;10822;51.532;6.770;2022-07-17T00:31:54;3.25;;;1.55;;
21326;SDS011;10822;51.532;6.770;2022-07-17T00:34:20;3.97;;;1.33;;
21326;SDS011;10822;51.532;6.770;2022-07-17T00:36:46;5.78;;;1.50;;
21326;SDS011;10822;51.532;6.770;2022-07-17T00:39:12;5.30;;;1.80;;
21326;SDS011;10822;51.532;6.770;2022-07-17T00:41:38;5.50;;;1.70;;
21326;SDS011;10822;51.532;6.770;2022-07-17T00:44:04;5.72;;;1.75;;
21326;SDS011;10822;51.532;6.770;2022-07-17T00:46:31;6.47;;;1.58;;
21326;SDS011;10822;51.532;6.770;2022-07-17T00:48:57;6.85;;;1.80;;
21326;SDS011;10822;51.532;6.770;2022-07-17T00:51:23;7.50;;;1.67;;
21326;SDS011;10822;51.532;6.770;2022-07-17T00:53:49;5.57;;;1.42;;
21326;SDS011;10822;51.532;6.770;2022-07-17T00:56:15;6.80;;;1.55;;
21326;SDS011;10822;51.532;6.770;2022-07-17T00:58:42;6.07;;;1.67;;
21326;SDS011;10822;51.532;6.770;2022-07-17T01:01:09;7.63;;;1.95;;
21326;SDS011;10822;51.532;6.770;2022-07-17T01:03:35;7.05;;;1.70;;
21326;SDS011;10822;51.532;6.770;2022-07-17T01:06:02;7.22;;;2.20;;
21326;SDS011;10822;51.532;6.770;2022-07-17T01:08:28;4.97;;;1.60;;
21326;SDS011;10822;51.532;6.770;2022-07-17T01:10:54;5.55;;;1.58;;
21326;SDS011;10822;51.532;6.770;2022-07-17T01:13:20;7.47;;;1.52;;
21326;SDS011;10822;51.532;6.770;2022-07-17T01:15:46;5.95;;;1.98;;
21326;SDS011;10822;51.532;6.770;2022-07-17T01:18:13;3.30;;;1.77;;
21326;SDS011;10822;51.532;6.770;2022-07-17T01:20:40;4.90;;;1.77;;
21326;SDS011;10822;51.532;6.770;2022-07-17T01:23:07;5.32;;;1.83;;
21326;SDS011;10822;51.532;6.770;2022-07-17T01:25:33;7.78;;;2.17;;
21326;SDS011;10822;51.532;6.770;2022-07-17T01:27:59;6.85;;;2.03;;
21326;SDS011;10822;51.532;6.770;2022-07-17T01:30:25;4.50;;;1.52;;
21326;SDS011;10822;51.532;6.770;2022-07-17T01:32:51;5.50;;;1.63;;
21326;SDS011;10822;51.532;6.770;2022-07-17T01:35:18;5.25;;;1.67;;
21326;SDS011;10822;51.532;6.770;2022-07-17T01:37:44;6.55;;;2.05;;
21326;SDS011;10822;51.532;6.770;2022-07-17T01:40:11;6.55;;;2.40;;
21326;SDS011;10822;51.532;6.770;2022-07-17T01:42:38;4.55;;;1.85;;
21326;SDS011;10822;51.532;6.770;2022-07-17T01:45:04;5.28;;;1.90;;
21326;SDS011;10822;51.532;6.770;2022-07-17T01:47:30;3.78;;;1.73;;
21326;SDS011;10822;51.532;6.770;2022-07-17T01:49:57;8.20;;;2.08;;
21326;SDS011;10822;51.532;6.770;2022-07-17T01:52:24;6.05;;;1.85;;
21326;SDS011;10822;51.532;6.770;2022-07-17T01:54:50;5.72;;;1.92;;
21326;SDS011;10822;51.532;6.770;2022-07-17T01:57:17;4.97;;;1.60;;
21326;SDS011;10822;51.532;6.770;2022-07-17T01:59:42;6.97;;;1.95;;
21326;SDS011;10822;51.532;6.770;2022-07-17T02:02:09;5.70;;;1.52;;
21326;SDS011;10822;51.532;6.770;2022-07-17T02:04:35;5.00;;;2.10;;
21326;SDS011;10822;51.532;6.770;2022-07-17T02:07:02;4.82;;;1.73;;
21326;SDS011;10822;51.532;6.770;2022-07-17T02:09:28;6.75;;;1.98;;
21326;SDS011;10822;51.532;6.770;2022-07-17T02:11:54;6.35;;;2.38;;
21326;SDS011;10822;51.532;6.770;2022-07-17T02:14:21;5.50;;;1.73;;
21326;SDS011;10822;51.532;6.770;2022-07-17T02:16:47;7.93;;;2.15;;
21326;SDS011;10822;51.532;6.770;2022-07-17T02:19:13;5.43;;;1.73;;
21326;SDS011;10822;51.532;6.770;2022-07-17T02:21:39;5.22;;;1.92;;
21326;SDS011;10822;51.532;6.770;2022-07-17T02:24:05;4.28;;;2.10;;
21326;SDS011;10822;51.532;6.770;2022-07-17T02:26:31;6.43;;;1.90;;
21326;SDS011;10822;51.532;6.770;2022-07-17T02:28:57;8.82;;;2.10;;
21326;SDS011;10822;51.532;6.770;2022-07-17T02:31:23;4.43;;;1.63;;
21326;SDS011;10822;51.532;6.770;2022-07-17T02:33:49;4.13;;;1.67;;
21326;SDS011;10822;51.532;6.770;2022-07-17T02:36:15;5.93;;;1.67;;
21326;SDS011;10822;51.532;6.770;2022-07-17T02:38:41;4.28;;;1.55;;
21326;SDS011;10822;51.532;6.770;2022-07-17T02:41:07;5.57;;;1.67;;
21326;SDS011;10822;51.532;6.770;2022-07-17T02:43:33;8.23;;;1.92;;
21326;SDS011;10822;51.532;6.770;2022-07-17T02:46:00;7.13;;;1.90;;
21326;SDS011;10822;51.532;6.770;2022-07-17T02:48:26;5.35;;;1.80;;
21326;SDS011;10822;51.532;6.770;2022-07-17T02:50:52;4.18;;;1.85;;
21326;SDS011;10822;51.532;6.770;2022-07-17T02:53:18;5.65;;;1.63;;
21326;SDS011;10822;51.532;6.770;2022-07-17T02:55:44;5.13;;;1.92;;
21326;SDS011;10822;51.532;6.770;2022-07-17T02:58:10;6.80;;;2.08;;
21326;SDS011;10822;51.532;6.770;2022-07-17T03:00:36;7.57;;;1.95;;
21326;SDS011;10822;51.532;6.770;2022-07-17T03:03:02;4.72;;;1.85;;
21326;SDS011;10822;51.532;6.770;2022-07-17T03:05:28;5.97;;;2.13;;
21326;SDS011;10822;51.532;6.770;2022-07-17T03:07:54;9.50;;;2.53;;
21326;SDS011;10822;51.532;6.770;2022-07-17T03:10:20;6.38;;;1.92;;
21326;SDS011;10822;51.532;6.770;2022-07-17T03:12:46;5.57;;;2.00;;
21326;SDS011;10822;51.532;6.770;2022-07-17T03:15:12;7.60;;;2.28;;
21326;SDS011;10822;51.532;6.770;2022-07-17T03:17:38;4.80;;;1.88;;
21326;SDS011;10822;51.532;6.770;2022-07-17T03:20:05;4.03;;;1.90;;
21326;SDS011;10822;51.532;6.770;2022-07-17T03:22:31;7.97;;;2.33;;
21326;SDS011;10822;51.532;6.770;2022-07-17T03:24:57;5.28;;;2.00;;
21326;SDS011;10822;51.532;6.770;2022-07-17T03:27:23;7.18;;;2.00;;
21326;SDS011;10822;51.532;6.770;2022-07-17T03:29:49;6.40;;;2.50;;
21326;SDS011;10822;51.532;6.770;2022-07-17T03:32:15;5.78;;;2.10;;
21326;SDS011;10822;51.532;6.770;2022-07-17T03:34:41;7.32;;;2.35;;
21326;SDS011;10822;51.532;6.770;2022-07-17T03:37:07;6.88;;;2.97;;
21326;SDS011;10822;51.532;6.770;2022-07-17T03:39:33;5.90;;;2.05;;
21326;SDS011;10822;51.532;6.770;2022-07-17T03:41:59;4.88;;;2.00;;
21326;SDS011;10822;51.532;6.770;2022-07-17T03:44:25;5.90;;;2.00;;
21326;SDS011;10822;51.532;6.770;2022-07-17T03:46:51;6.25;;;2.10;;
21326;SDS011;10822;51.532;6.770;2022-07-17T03:49:17;5.32;;;2.13;;
21326;SDS011;10822;51.532;6.770;2022-07-17T03:51:43;6.55;;;2.10;;
21326;SDS011;10822;51.532;6.770;2022-07-17T03:54:09;4.88;;;2.00;;
21326;SDS011;10822;51.532;6.770;2022-07-17T03:56:35;10.73;;;2.20;;
21326;SDS011;10822;51.532;6.770;2022-07-17T03:59:01;6.28;;;2.20;;
21326;SDS011;10822;51.532;6.770;2022-07-17T04:01:27;6.05;;;2.00;;
21326;SDS011;10822;51.532;6.770;2022-07-17T04:03:53;8.02;;;2.30;;
21326;SDS011;10822;51.532;6.770;2022-07-17T04:06:19;5.03;;;2.20;;
21326;SDS011;10822;51.532;6.770;2022-07-17T04:08:45;5.05;;;1.98;;
21326;SDS011;10822;51.532;6.770;2022-07-17T04:11:11;5.75;;;2.13;;
21326;SDS011;10822;51.532;6.770;2022-07-17T04:13:37;7.18;;;2.40;;
21326;SDS011;10822;51.532;6.770;2022-07-17T04:16:03;6.25;;;2.42;;
21326;SDS011;10822;51.532;6.770;2022-07-17T04:18:31;6.25;;;2.22;;
21326;SDS011;10822;51.532;6.770;2022-07-17T04:20:58;5.18;;;1.98;;
21326;SDS011;10822;51.532;6.770;2022-07-17T04:23:24;5.65;;;1.98;;
21326;SDS011;10822;51.532;6.770;2022-07-17T04:25:51;5.80;;;2.13;;
21326;SDS011;10822;51.532;6.770;2022-07-17T04:28:17;6.05;;;2.25;;
21326;SDS011;10822;51.532;6.770;2022-07-17T04:30:43;6.15;;;2.10;;
21326;SDS011;10822;51.532;6.770;2022-07-17T04:33:10;5.65;;;1.80;;
21326;SDS011;10822;51.532;6.770;2022-07-17T04:35:36;5.65;;;2.22;;
21326;SDS011;10822;51.532;6.770;2022-07-17T04:38:02;9.80;;;2.22;;
21326;SDS011;10822;51.532;6.770;2022-07-17T04:40:29;5.07;;;1.90;;
21326;SDS011;10822;51.532;6.770;2022-07-17T04:42:55;5.47;;;1.80;;
21326;SDS011;10822;51.532;6.770;2022-07-17T04:45:21;5.03;;;2.25;;
21326;SDS011;10822;51.532;6.770;2022-07-17T04:47:47;4.28;;;1.98;;
21326;SDS011;10822;51.532;6.770;2022-07-17T04:50:13;6.07;;;2.30;;
21326;SDS011;10822;51.532;6.770;2022-07-17T04:52:39;5.57;;;1.85;;
21326;SDS011;10822;51.532;6.770;2022-07-17T04:55:05;4.60;;;2.10;;
21326;SDS011;10822;51.532;6.770;2022-07-17T04:57:31;7.97;;;2.47;;
21326;SDS011;10822;51.532;6.770;2022-07-17T04:59:57;5.30;;;1.88;;
21326;SDS011;10822;51.532;6.770;2022-07-17T05:02:23;6.07;;;2.53;;
21326;SDS011;10822;51.532;6.770;2022-07-17T05:04:49;11.50;;;2.10;;
21326;SDS011;10822;51.532;6.770;2022-07-17T05:07:15;6.35;;;2.10;;
21326;SDS011;10822;51.532;6.770;2022-07-17T05:09:42;6.70;;;3.05;;
21326;SDS011;10822;51.532;6.770;2022-07-17T05:12:08;6.63;;;2.22;;
21326;SDS011;10822;51.532;6.770;2022-07-17T05:14:34;7.22;;;2.20;;
21326;SDS011;10822;51.532;6.770;2022-07-17T05:17:00;9.77;;;2.70;;
21326;SDS011;10822;51.532;6.770;2022-07-17T05:19:27;11.10;;;2.63;;
21326;SDS011;10822;51.532;6.770;2022-07-17T05:21:53;6.90;;;2.40;;
21326;SDS011;10822;51.532;6.770;2022-07-17T05:24:19;6.50;;;2.00;;
21326;SDS011;10822;51.532;6.770;2022-07-17T05:26:45;10.05;;;2.20;;
21326;SDS011;10822;51.532;6.770;2022-07-17T05:29:11;11.57;;;2.60;;
21326;SDS011;10822;51.532;6.770;2022-07-17T05:31:37;4.80;;;2.33;;
21326;SDS011;10822;51.532;6.770;2022-07-17T05:34:03;5.63;;;2.28;;
21326;SDS011;10822;51.532;6.770;2022-07-17T05:36:29;6.88;;;2.28;;
21326;SDS011;10822;51.532;6.770;2022-07-17T05:38:55;6.32;;;2.00;;
21326;SDS011;10822;51.532;6.770;2022-07-17T05:41:21;5.85;;;2.38;;
21326;SDS011;10822;51.532;6.770;2022-07-17T05:43:47;8.18;;;2.83;;
21326;SDS011;10822;51.532;6.770;2022-07-17T05:46:13;6.15;;;2.28;;
21326;SDS011;10822;51.532;6.770;2022-07-17T05:48:39;6.20;;;2.53;;
21326;SDS011;10822;51.532;6.770;2022-07-17T05:51:05;6.15;;;2.58;;
21326;SDS011;10822;51.532;6.770;2022-07-17T05:53:31;7.25;;;2.50;;
21326;SDS011;10822;51.532;6.770;2022-07-17T05:55:57;6.85;;;2.15;;
21326;SDS011;10822;51.532;6.770;2022-07-17T05:58:23;8.88;;;2.10;;
21326;SDS011;10822;51.532;6.770;2022-07-17T06:00:49;7.18;;;2.70;;
21326;SDS011;10822;51.532;6.770;2022-07-17T06:03:15;4.53;;;2.20;;
21326;SDS011;10822;51.532;6.770;2022-07-17T06:05:41;7.10;;;2.30;;
21326;SDS011;10822;51.532;6.770;2022-07-17T06:08:07;6.88;;;2.40;;
21326;SDS011;10822;51.532;6.770;2022-07-17T06:10:33;12.32;;;2.33;;
21326;SDS011;10822;51.532;6.770;2022-07-17T06:12:59;7.35;;;2.10;;
21326;SDS011;10822;51.532;6.770;2022-07-17T06:15:25;7.00;;;2.30;;
21326;SDS011;10822;51.532;6.770;2022-07-17T06:17:52;5.82;;;1.98;;
21326;SDS011;10822;51.532;6.770;2022-07-17T06:20:18;5.88;;;2.25;;
21326;SDS011;10822;51.532;6.770;2022-07-17T06:22:44;8.10;;;2.60;;
21326;SDS011;10822;51.532;6.770;2022-07-17T06:25:11;8.02;;;2.30;;
21326;SDS011;10822;51.532;6.770;2022-07-17T06:27:41;5.30;;;2.15;;
21326;SDS011;10822;51.532;6.770;2022-07-17T06:30:08;6.38;;;2.00;;
21326;SDS011;10822;51.532;6.770;2022-07-17T06:32:34;7.53;;;2.22;;
21326;SDS011;10822;51.532;6.770;2022-07-17T06:35:00;7.65;;;2.30;;
21326;SDS011;10822;51.532;6.770;2022-07-17T06:37:26;8.52;;;2.40;;
21326;SDS011;10822;51.532;6.770;2022-07-17T06:39:52;8.55;;;2.50;;
21326;SDS011;10822;51.532;6.770;2022-07-17T06:42:18;6.80;;;2.33;;
21326;SDS011;10822;51.532;6.770;2022-07-17T06:44:44;8.02;;;2.28;;
21326;SDS011;10822;51.532;6.770;2022-07-17T06:47:10;7.30;;;2.50;;
21326;SDS011;10822;51.532;6.770;2022-07-17T06:49:36;8.52;;;2.13;;
21326;SDS011;10822;51.532;6.770;2022-07-17T06:52:02;7.68;;;2.92;;
21326;SDS011;10822;51.532;6.770;2022-07-17T06:54:28;8.85;;;2.50;;
21326;SDS011;10822;51.532;6.770;2022-07-17T06:56:54;6.40;;;2.53;;
21326;SDS011;10822;51.532;6.770;2022-07-17T06:59:20;7.20;;;2.45;;
21326;SDS011;10822;51.532;6.770;2022-07-17T07:01:46;5.97;;;2.38;;
21326;SDS011;10822;51.532;6.770;2022-07-17T07:04:12;7.50;;;2.45;;
21326;SDS011;10822;51.532;6.770;2022-07-17T07:06:38;7.93;;;2.70;;
21326;SDS011;10822;51.532;6.770;2022-07-17T07:09:04;9.75;;;2.47;;
21326;SDS011;10822;51.532;6.770;2022-07-17T07:11:30;11.90;;;2.72;;
21326;SDS011;10822;51.532;6.770;2022-07-17T07:13:56;6.15;;;2.20;;
21326;SDS011;10822;51.532;6.770;2022-07-17T07:16:22;11.60;;;3.10;;
21326;SDS011;10822;51.532;6.770;2022-07-17T07:18:48;9.55;;;2.53;;
21326;SDS011;10822;51.532;6.770;2022-07-17T07:21:14;6.47;;;2.53;;
21326;SDS011;10822;51.532;6.770;2022-07-17T07:23:40;9.27;;;2.90;;
21326;SDS011;10822;51.532;6.770;2022-07-17T07:26:06;7.47;;;3.15;;
21326;SDS011;10822;51.532;6.770;2022-07-17T07:28:32;9.38;;;3.00;;
21326;SDS011;10822;51.532;6.770;2022-07-17T07:30:59;6.40;;;2.30;;
21326;SDS011;10822;51.532;6.770;2022-07-17T07:33:25;7.78;;;2.47;;
21326;SDS011;10822;51.532;6.770;2022-07-17T07:35:51;8.85;;;2.03;;
21326;SDS011;10822;51.532;6.770;2022-07-17T07:38:17;8.48;;;2.47;;
21326;SDS011;10822;51.532;6.770;2022-07-17T07:40:43;8.32;;;2.45;;
21326;SDS011;10822;51.532;6.770;2022-07-17T07:43:09;7.60;;;2.70;;
21326;SDS011;10822;51.532;6.770;2022-07-17T07:45:35;6.63;;;2.00;;
21326;SDS011;10822;51.532;6.770;2022-07-17T07:48:01;8.32;;;2.58;;
21326;SDS011;10822;51.532;6.770;2022-07-17T07:50:27;8.60;;;2.50;;
21326;SDS011;10822;51.532;6.770;2022-07-17T07:52:53;6.50;;;2.13;;
21326;SDS011;10822;51.532;6.770;2022-07-17T07:55:20;6.47;;;2.05;;
21326;SDS011;10822;51.532;6.770;2022-07-17T07:57:46;7.55;;;2.40;;
21326;SDS011;10822;51.532;6.770;2022-07-17T08:00:12;9.38;;;2.35;;
21326;SDS011;10822;51.532;6.770;2022-07-17T08:02:38;5.75;;;1.95;;
21326;SDS011;10822;51.532;6.770;2022-07-17T08:05:04;8.55;;;2.40;;
21326;SDS011;10822;51.532;6.770;2022-07-17T08:07:31;10.45;;;2.67;;
21326;SDS011;10822;51.532;6.770;2022-07-17T08:09:57;10.82;;;2.50;;
21326;SDS011;10822;51.532;6.770;2022-07-17T08:12:23;11.80;;;3.10;;
21326;SDS011;10822;51.532;6.770;2022-07-17T08:14:50;11.48;;;3.28;;
21326;SDS011;10822;51.532;6.770;2022-07-17T08:17:16;7.68;;;2.65;;
21326;SDS011;10822;51.532;6.770;2022-07-17T08:19:44;6.95;;;2.03;;
21326;SDS011;10822;51.532;6.770;2022-07-17T08:22:10;6.35;;;1.70;;
21326;SDS011;10822;51.532;6.770;2022-07-17T08:24:37;8.20;;;2.40;;
21326;SDS011;10822;51.532;6.770;2022-07-17T08:27:03;6.78;;;2.28;;
21326;SDS011;10822;51.532;6.770;2022-07-17T08:29:29;8.30;;;2.17;;
21326;SDS011;10822;51.532;6.770;2022-07-17T08:31:55;9.73;;;2.20;;
21326;SDS011;10822;51.532;6.770;2022-07-17T08:34:21;7.97;;;2.25;;
21326;SDS011;10822;51.532;6.770;2022-07-17T08:36:47;5.85;;;2.20;;
21326;SDS011;10822;51.532;6.770;2022-07-17T08:39:13;6.50;;;2.20;;
21326;SDS011;10822;51.532;6.770;2022-07-17T08:41:39;7.35;;;2.00;;
21326;SDS011;10822;51.532;6.770;2022-07-17T08:44:06;10.88;;;2.20;;
21326;SDS011;10822;51.532;6.770;2022-07-17T08:46:34;4.95;;;1.80;;
21326;SDS011;10822;51.532;6.770;2022-07-17T08:49:00;10.68;;;2.20;;
21326;SDS011;10822;51.532;6.770;2022-07-17T08:51:27;7.38;;;2.20;;
21326;SDS011;10822;51.532;6.770;2022-07-17T08:53:53;9.55;;;2.38;;
21326;SDS011;10822;51.532;6.770;2022-07-17T08:56:20;7.25;;;2.05;;
21326;SDS011;10822;51.532;6.770;2022-07-17T08:58:46;6.38;;;2.10;;
21326;SDS011;10822;51.532;6.770;2022-07-17T09:01:12;7.90;;;1.90;;
21326;SDS011;10822;51.532;6.770;2022-07-17T09:03:39;6.13;;;2.17;;
21326;SDS011;10822;51.532;6.770;2022-07-17T09:06:16;7.10;;;2.00;;
21326;SDS011;10822;51.532;6.770;2022-07-17T09:08:42;10.43;;;2.42;;
21326;SDS011;10822;51.532;6.770;2022-07-17T09:11:08;9.68;;;2.30;;
21326;SDS011;10822;51.532;6.770;2022-07-17T09:13:35;6.85;;;2.03;;
21326;SDS011;10822;51.532;6.770;2022-07-17T09:16:08;5.55;;;1.95;;
21326;SDS011;10822;51.532;6.770;2022-07-17T09:18:47;7.65;;;2.20;;
21326;SDS011;10822;51.532;6.770;2022-07-17T09:21:32;10.38;;;2.28;;
21326;SDS011;10822;51.532;6.770;2022-07-17T09:23:59;7.57;;;2.00;;
21326;SDS011;10822;51.532;6.770;2022-07-17T09:26:26;5.97;;;1.92;;
21326;SDS011;10822;51.532;6.770;2022-07-17T09:28:52;5.45;;;1.90;;
21326;SDS011;10822;51.532;6.770;2022-07-17T09:31:28;6.68;;;2.05;;
21326;SDS011;10822;51.532;6.770;2022-07-17T09:33:54;8.93;;;2.10;;
21326;SDS011;10822;51.532;6.770;2022-07-17T09:36:20;5.88;;;2.08;;
21326;SDS011;10822;51.532;6.770;2022-07-17T09:38:48;6.35;;;1.75;;
21326;SDS011;10822;51.532;6.770;2022-07-17T09:41:15;5.57;;;1.85;;
21326;SDS011;10822;51.532;6.770;2022-07-17T09:43:43;5.68;;;1.80;;
21326;SDS011;10822;51.532;6.770;2022-07-17T09:46:11;5.30;;;1.85;;
21326;SDS011;10822;51.532;6.770;2022-07-17T09:48:47;7.28;;;2.60;;
21326;SDS011;10822;51.532;6.770;2022-07-17T09:51:18;7.10;;;2.65;;
21326;SDS011;10822;51.532;6.770;2022-07-17T09:53:44;6.30;;;2.00;;
21326;SDS011;10822;51.532;6.770;2022-07-17T09:56:12;4.93;;;1.63;;
21326;SDS011;10822;51.532;6.770;2022-07-17T09:58:40;7.05;;;1.98;;
21326;SDS011;10822;51.532;6.770;2022-07-17T10:01:08;5.65;;;1.58;;
21326;SDS011;10822;51.532;6.770;2022-07-17T10:03:34;6.32;;;1.80;;
21326;SDS011;10822;51.532;6.770;2022-07-17T10:06:01;6.32;;;1.70;;
21326;SDS011;10822;51.532;6.770;2022-07-17T10:08:27;7.30;;;1.80;;
21326;SDS011;10822;51.532;6.770;2022-07-17T10:10:53;3.63;;;1.60;;
21326;SDS011;10822;51.532;6.770;2022-07-17T10:13:19;4.13;;;1.60;;
21326;SDS011;10822;51.532;6.770;2022-07-17T10:15:45;6.22;;;2.40;;
21326;SDS011;10822;51.532;6.770;2022-07-17T10:18:12;4.82;;;1.63;;
21326;SDS011;10822;51.532;6.770;2022-07-17T10:20:38;3.70;;;1.50;;
21326;SDS011;10822;51.532;6.770;2022-07-17T10:23:13;5.13;;;1.80;;
21326;SDS011;10822;51.532;6.770;2022-07-17T10:25:40;6.53;;;1.83;;
21326;SDS011;10822;51.532;6.770;2022-07-17T10:28:06;4.78;;;1.50;;
21326;SDS011;10822;51.532;6.770;2022-07-17T10:30:32;5.10;;;1.73;;
21326;SDS011;10822;51.532;6.770;2022-07-17T10:33:00;4.18;;;1.85;;
21326;SDS011;10822;51.532;6.770;2022-07-17T10:35:27;6.22;;;2.08;;
21326;SDS011;10822;51.532;6.770;2022-07-17T10:37:58;4.72;;;2.00;;
21326;SDS011;10822;51.532;6.770;2022-07-17T10:40:25;4.22;;;1.95;;
21326;SDS011;10822;51.532;6.770;2022-07-17T10:42:59;5.40;;;2.03;;
21326;SDS011;10822;51.532;6.770;2022-07-17T10:50:24;4.57;;;1.92;;
21326;SDS011;10822;51.532;6.770;2022-07-17T10:53:00;5.00;;;1.98;;
21326;SDS011;10822;51.532;6.770;2022-07-17T10:55:27;4.43;;;1.80;;
21326;SDS011;10822;51.532;6.770;2022-07-17T10:57:54;5.65;;;1.80;;
21326;SDS011;10822;51.532;6.770;2022-07-17T11:00:20;6.70;;;2.20;;
21326;SDS011;10822;51.532;6.770;2022-07-17T11:02:46;5.82;;;2.20;;
21326;SDS011;10822;51.532;6.770;2022-07-17T11:05:12;6.13;;;2.20;;
21326;SDS011;10822;51.532;6.770;2022-07-17T11:07:52;7.93;;;2.22;;
21326;SDS011;10822;51.532;6.770;2022-07-17T11:10:18;5.72;;;1.90;;
21326;SDS011;10822;51.532;6.770;2022-07-17T11:12:44;4.57;;;2.17;;
21326;SDS011;10822;51.532;6.770;2022-07-17T11:15:10;5.22;;;2.38;;
21326;SDS011;10822;51.532;6.770;2022-07-17T11:17:36;5.70;;;1.83;;
21326;SDS011;10822;51.532;6.770;2022-07-17T11:20:02;4.93;;;2.10;;
21326;SDS011;10822;51.532;6.770;2022-07-17T11:22:28;7.35;;;2.05;;
21326;SDS011;10822;51.532;6.770;2022-07-17T11:24:54;6.55;;;2.53;;
21326;SDS011;10822;51.532;6.770;2022-07-17T11:29:50;6.65;;;2.60;;
21326;SDS011;10822;51.532;6.770;2022-07-17T11:32:16;5.93;;;2.50;;
21326;SDS011;10822;51.532;6.770;2022-07-17T11:34:42;6.40;;;2.45;;
21326;SDS011;10822;51.532;6.770;2022-07-17T11:37:08;9.05;;;3.22;;
21326;SDS011;10822;51.532;6.770;2022-07-17T11:39:42;7.95;;;3.00;;
21326;SDS011;10822;51.532;6.770;2022-07-17T11:42:12;6.13;;;2.70;;
21326;SDS011;10822;51.532;6.770;2022-07-17T11:44:38;10.77;;;3.60;;
21326;SDS011;10822;51.532;6.770;2022-07-17T11:47:05;7.75;;;2.95;;
21326;SDS011;10822;51.532;6.770;2022-07-17T11:49:38;8.18;;;2.80;;
21326;SDS011;10822;51.532;6.770;2022-07-17T11:54:43;8.60;;;2.92;;
21326;SDS011;10822;51.532;6.770;2022-07-17T11:57:09;7.35;;;2.75;;
21326;SDS011;10822;51.532;6.770;2022-07-17T11:59:35;8.90;;;2.92;;
21326;SDS011;10822;51.532;6.770;2022-07-17T12:02:14;7.65;;;3.22;;
21326;SDS011;10822;51.532;6.770;2022-07-17T12:04:51;8.82;;;3.42;;
21326;SDS011;10822;51.532;6.770;2022-07-17T12:07:19;6.20;;;3.00;;
21326;SDS011;10822;51.532;6.770;2022-07-17T12:09:45;7.50;;;3.03;;
21326;SDS011;10822;51.532;6.770;2022-07-17T12:12:18;6.68;;;2.97;;
21326;SDS011;10822;51.532;6.770;2022-07-17T12:14:52;5.75;;;3.17;;
21326;SDS011;10822;51.532;6.770;2022-07-17T12:17:18;9.80;;;3.30;;
21326;SDS011;10822;51.532;6.770;2022-07-17T12:19:44;6.95;;;3.20;;
21326;SDS011;10822;51.532;6.770;2022-07-17T12:22:10;5.72;;;3.22;;
21326;SDS011;10822;51.532;6.770;2022-07-17T12:24:40;7.68;;;3.13;;
21326;SDS011;10822;51.532;6.770;2022-07-17T12:27:07;6.40;;;2.85;;
21326;SDS011;10822;51.532;6.770;2022-07-17T12:29:33;6.82;;;2.90;;
21326;SDS011;10822;51.532;6.770;2022-07-17T12:32:00;6.78;;;3.33;;
21326;SDS011;10822;51.532;6.770;2022-07-17T12:34:26;8.30;;;3.05;;
21326;SDS011;10822;51.532;6.770;2022-07-17T12:36:52;7.32;;;3.50;;
21326;SDS011;10822;51.532;6.770;2022-07-17T12:39:18;6.57;;;3.40;;
21326;SDS011;10822;51.532;6.770;2022-07-17T12:41:44;6.38;;;3.20;;
21326;SDS011;10822;51.532;6.770;2022-07-17T12:44:11;7.25;;;3.30;;
21326;SDS011;10822;51.532;6.770;2022-07-17T12:46:37;7.30;;;3.42;;
21326;SDS011;10822;51.532;6.770;2022-07-17T12:49:03;6.85;;;3.55;;
21326;SDS011;10822;51.532;6.770;2022-07-17T12:51:29;6.07;;;3.35;;
21326;SDS011;10822;51.532;6.770;2022-07-17T12:53:56;6.15;;;3.30;;
21326;SDS011;10822;51.532;6.770;2022-07-17T12:56:22;5.82;;;3.40;;
21326;SDS011;10822;51.532;6.770;2022-07-17T12:58:48;6.30;;;3.13;;
21326;SDS011;10822;51.532;6.770;2022-07-17T13:01:15;5.15;;;3.10;;
21326;SDS011;10822;51.532;6.770;2022-07-17T13:03:41;6.93;;;3.47;;
21326;SDS011;10822;51.532;6.770;2022-07-17T13:06:07;7.70;;;3.42;;
21326;SDS011;10822;51.532;6.770;2022-07-17T13:08:33;6.57;;;3.10;;
21326;SDS011;10822;51.532;6.770;2022-07-17T13:10:59;5.95;;;3.20;;
21326;SDS011;10822;51.532;6.770;2022-07-17T13:13:26;8.85;;;3.28;;
21326;SDS011;10822;51.532;6.770;2022-07-17T13:15:53;4.65;;;2.55;;
21326;SDS011;10822;51.532;6.770;2022-07-17T13:18:19;5.43;;;3.00;;
21326;SDS011;10822;51.532;6.770;2022-07-17T13:20:45;6.53;;;2.80;;
21326;SDS011;10822;51.532;6.770;2022-07-17T13:23:11;4.60;;;2.83;;
21326;SDS011;10822;51.532;6.770;2022-07-17T13:25:38;5.70;;;3.00;;
21326;SDS011;10822;51.532;6.770;2022-07-17T13:28:04;6.22;;;2.70;;
21326;SDS011;10822;51.532;6.770;2022-07-17T13:30:30;5.50;;;2.90;;
21326;SDS011;10822;51.532;6.770;2022-07-17T13:32:56;9.65;;;5.32;;
21326;SDS011;10822;51.532;6.770;2022-07-17T13:35:22;9.65;;;4.57;;
21326;SDS011;10822;51.532;6.770;2022-07-17T13:37:48;7.80;;;4.60;;
21326;SDS011;10822;51.532;6.770;2022-07-17T13:40:14;6.10;;;3.20;;
21326;SDS011;10822;51.532;6.770;2022-07-17T13:42:40;7.07;;;3.30;;
21326;SDS011;10822;51.532;6.770;2022-07-17T13:45:06;6.13;;;3.55;;
21326;SDS011;10822;51.532;6.770;2022-07-17T13:47:32;6.03;;;3.00;;
21326;SDS011;10822;51.532;6.770;2022-07-17T13:49:58;5.28;;;2.90;;
21326;SDS011;10822;51.532;6.770;2022-07-17T13:52:24;4.85;;;2.72;;
21326;SDS011;10822;51.532;6.770;2022-07-17T13:54:50;5.05;;;3.15;;
21326;SDS011;10822;51.532;6.770;2022-07-17T13:57:16;5.90;;;2.95;;
21326;SDS011;10822;51.532;6.770;2022-07-17T13:59:42;11.60;;;3.28;;
21326;SDS011;10822;51.532;6.770;2022-07-17T14:02:08;6.38;;;3.00;;
21326;SDS011;10822;51.532;6.770;2022-07-17T14:04:34;9.05;;;3.00;;
21326;SDS011;10822;51.532;6.770;2022-07-17T14:07:00;8.55;;;2.88;;
21326;SDS011;10822;51.532;6.770;2022-07-17T14:09:26;6.13;;;3.30;;
21326;SDS011;10822;51.532;6.770;2022-07-17T14:11:52;7.65;;;2.60;;
21326;SDS011;10822;51.532;6.770;2022-07-17T14:14:19;11.68;;;3.17;;
21326;SDS011;10822;51.532;6.770;2022-07-17T14:16:45;8.63;;;2.80;;
21326;SDS011;10822;51.532;6.770;2022-07-17T14:19:11;49.22;;;6.47;;
21326;SDS011;10822;51.532;6.770;2022-07-17T14:21:37;5.60;;;2.50;;
21326;SDS011;10822;51.532;6.770;2022-07-17T14:24:04;22.25;;;3.92;;
21326;SDS011;10822;51.532;6.770;2022-07-17T14:26:30;7.97;;;2.90;;
21326;SDS011;10822;51.532;6.770;2022-07-17T14:28:57;5.53;;;2.60;;
21326;SDS011;10822;51.532;6.770;2022-07-17T14:31:23;5.80;;;2.53;;
21326;SDS011;10822;51.532;6.770;2022-07-17T14:33:49;10.32;;;2.80;;
21326;SDS011;10822;51.532;6.770;2022-07-17T14:36:15;5.03;;;2.50;;
21326;SDS011;10822;51.532;6.770;2022-07-17T14:38:41;6.68;;;2.13;;
21326;SDS011;10822;51.532;6.770;2022-07-17T14:41:07;7.05;;;2.28;;
21326;SDS011;10822;51.532;6.770;2022-07-17T14:43:33;4.18;;;2.00;;
21326;SDS011;10822;51.532;6.770;2022-07-17T14:45:59;5.13;;;1.63;;
21326;SDS011;10822;51.532;6.770;2022-07-17T14:48:25;3.85;;;1.30;;
21326;SDS011;10822;51.532;6.770;2022-07-17T14:50:51;4.07;;;1.70;;
21326;SDS011;10822;51.532;6.770;2022-07-17T14:53:18;4.85;;;1.52;;